createdAt,value
2018-12-17T00:00:55.097Z,96161.67
2018-12-17T00:03:23.109Z,96162.05
2018-12-17T00:05:50.707Z,96167.26
2018-12-17T00:08:18.119Z,96164.28
2018-12-17T00:10:45.527Z,96156.95
2018-12-17T00:13:12.997Z,96158.73
2018-12-17T00:15:41.397Z,96161.91
2018-12-17T00:18:08.802Z,96164.61
2018-12-17T00:20:36.576Z,96163.99
2018-12-17T00:23:03.982Z,96163.27
2018-12-17T00:25:31.399Z,96167.65
2018-12-17T00:27:59.279Z,96160.42
2018-12-17T00:30:26.795Z,96166.92
2018-12-17T00:32:54.597Z,96157.34
2018-12-17T00:35:22.343Z,96163.84
2018-12-17T00:37:49.757Z,96169.39
2018-12-17T00:40:17.326Z,96172.95
2018-12-17T00:42:45.031Z,96173.14
2018-12-17T00:45:13.528Z,96177.63
2018-12-17T00:47:41.124Z,96182.92
2018-12-17T00:50:08.627Z,96183.05
2018-12-17T00:52:36.326Z,96188.25
2018-12-17T00:55:04.258Z,96177.13
2018-12-17T00:57:31.696Z,96183.98
2018-12-17T00:59:59.112Z,96189.66
2018-12-17T01:02:26.600Z,96189.17
2018-12-17T01:04:54.365Z,96191.42
2018-12-17T01:07:23.719Z,96189.66
2018-12-17T01:09:51.129Z,96194.03
2018-12-17T01:12:18.703Z,96188.83
2018-12-17T01:14:46.111Z,96187.72
2018-12-17T01:17:14.308Z,96185.95
2018-12-17T01:19:41.796Z,96186.42
2018-12-17T01:22:09.194Z,96182.63
2018-12-17T01:24:37.391Z,96180.88
2018-12-17T01:27:04.988Z,96187.48
2018-12-17T01:29:32.404Z,96190.52
2018-12-17T01:32:00.688Z,96190.17
2018-12-17T01:34:28.582Z,96203.08
2018-12-17T01:36:55.991Z,96200.92
2018-12-17T01:39:23.488Z,96208.38
2018-12-17T01:41:50.998Z,96208.47
2018-12-17T01:44:18.784Z,96205.39
2018-12-17T01:46:46.704Z,96205.97
2018-12-17T01:49:14.655Z,96203.13
2018-12-17T01:51:42.947Z,96204.04
2018-12-17T01:54:10.514Z,96206.77
2018-12-17T01:56:38.351Z,96200.84
2018-12-17T01:59:05.844Z,96195.75
2018-12-17T02:01:33.251Z,96198.92
2018-12-17T02:04:00.834Z,96199.94
2018-12-17T02:06:28.245Z,96199.21
2018-12-17T02:08:55.657Z,96203.81
2018-12-17T02:11:23.202Z,96203.53
2018-12-17T02:13:51.296Z,96197.98
2018-12-17T02:16:18.702Z,96197.61
2018-12-17T02:18:46.450Z,96205.50
2018-12-17T02:21:13.911Z,96205.50
2018-12-17T02:23:41.612Z,96215.54
2018-12-17T02:26:09.307Z,96213.86
2018-12-17T02:28:36.716Z,96225.45
2018-12-17T02:31:04.124Z,96224.25
2018-12-17T02:33:31.847Z,96230.50
2018-12-17T02:36:01.108Z,96231.64
2018-12-17T02:38:28.525Z,96227.42
2018-12-17T02:40:56.167Z,96229.80
2018-12-17T02:43:24.064Z,96229.35
2018-12-17T02:45:51.482Z,96227.32
2018-12-17T02:48:18.951Z,96228.63
2018-12-17T02:50:46.403Z,96227.70
2018-12-17T02:53:14.522Z,96232.98
2018-12-17T02:55:42.089Z,96235.68
2018-12-17T02:58:09.496Z,96244.20
2018-12-17T03:00:36.969Z,96243.37
2018-12-17T03:03:04.813Z,96248.57
2018-12-17T03:05:32.270Z,96247.62
2018-12-17T03:08:00.546Z,96248.00
2018-12-17T03:10:28.243Z,96246.61
2018-12-17T03:12:55.651Z,96249.65
2018-12-17T03:15:23.164Z,96254.23
2018-12-17T03:17:50.881Z,96249.41
2018-12-17T03:20:18.287Z,96256.69
2018-12-17T03:22:45.700Z,96261.81
2018-12-17T03:25:13.356Z,96262.08
2018-12-17T03:27:40.951Z,96261.66
2018-12-17T03:30:08.576Z,96276.23
2018-12-17T03:32:36.276Z,96277.62
2018-12-17T03:35:04.319Z,96272.05
2018-12-17T03:37:32.305Z,96280.30
2018-12-17T03:39:59.997Z,96276.98
2018-12-17T03:42:27.407Z,96284.86
2018-12-17T03:44:54.851Z,96286.97
2018-12-17T03:47:22.959Z,96288.48
2018-12-17T03:49:50.657Z,96286.92
2018-12-17T03:52:18.064Z,96294.50
2018-12-17T03:54:45.846Z,96287.58
2018-12-17T03:57:13.257Z,96291.47
2018-12-17T03:59:40.733Z,96300.08
2018-12-17T04:02:08.152Z,96306.66
2018-12-17T04:04:36.156Z,96307.69
2018-12-17T04:07:03.626Z,96315.56
2018-12-17T04:09:31.159Z,96322.81
2018-12-17T04:11:58.567Z,96319.00
2018-12-17T04:14:25.966Z,96333.09
2018-12-17T04:16:53.816Z,96334.39
2018-12-17T04:19:21.211Z,96335.13
2018-12-17T04:21:49.409Z,96337.72
2018-12-17T04:24:17.090Z,96338.75
2018-12-17T04:26:44.494Z,96341.05
2018-12-17T04:29:12.270Z,96349.38
2018-12-17T04:31:39.822Z,96345.41
2018-12-17T04:34:07.649Z,96349.66
2018-12-17T04:36:35.328Z,96349.84
2018-12-17T04:39:03.308Z,96355.20
2018-12-17T04:41:30.861Z,96360.31
2018-12-17T04:43:58.373Z,96364.20
2018-12-17T04:46:26.084Z,96361.81
2018-12-17T04:48:53.501Z,96366.61
2018-12-17T04:51:21.006Z,96369.21
2018-12-17T04:53:48.561Z,96370.12
2018-12-17T04:56:16.447Z,96376.36
2018-12-17T04:58:43.859Z,96383.11
2018-12-17T05:01:11.436Z,96384.67
2018-12-17T05:03:38.847Z,96389.03
2018-12-17T05:06:06.304Z,96396.73
2018-12-17T05:08:33.920Z,96395.52
2018-12-17T05:11:01.335Z,96396.91
2018-12-17T05:13:28.732Z,96398.84
2018-12-17T05:15:56.546Z,96395.08
2018-12-17T05:18:23.949Z,96403.22
2018-12-17T05:20:51.362Z,96407.93
2018-12-17T05:23:18.965Z,96412.30
2018-12-17T05:25:46.484Z,96424.91
2018-12-17T05:28:13.897Z,96424.05
2018-12-17T05:30:41.639Z,96419.25
2018-12-17T05:33:09.113Z,96423.14
2018-12-17T05:35:36.606Z,96420.72
2018-12-17T05:38:04.218Z,96425.17
2018-12-17T05:40:31.919Z,96425.64
2018-12-17T05:42:59.412Z,96424.90
2018-12-17T05:45:28.018Z,96438.34
2018-12-17T05:47:55.815Z,96436.47
2018-12-17T05:50:23.225Z,96435.46
2018-12-17T05:52:50.961Z,96446.00
2018-12-17T05:55:18.654Z,96445.62
2018-12-17T05:57:46.080Z,96449.70
2018-12-17T06:00:13.684Z,96453.96
2018-12-17T06:02:41.100Z,96456.70
2018-12-17T06:05:08.500Z,96461.97
2018-12-17T06:07:36.166Z,96459.81
2018-12-17T06:10:04.432Z,96470.92
2018-12-17T06:12:31.840Z,96469.36
2018-12-17T06:14:59.552Z,96486.01
2018-12-17T06:17:26.959Z,96492.45
2018-12-17T06:19:54.373Z,96483.42
2018-12-17T06:22:21.808Z,96484.52
2018-12-17T06:24:49.216Z,96495.27
2018-12-17T06:27:16.631Z,96496.37
2018-12-17T06:29:44.368Z,96495.37
2018-12-17T06:32:11.768Z,96502.61
2018-12-17T06:34:39.756Z,96515.58
2018-12-17T06:37:07.284Z,96511.35
2018-12-17T06:39:35.096Z,96517.54
2018-12-17T06:42:02.560Z,96526.21
2018-12-17T06:44:30.259Z,96526.39
2018-12-17T06:46:57.664Z,96529.05
2018-12-17T06:49:25.098Z,96533.02
2018-12-17T06:51:53.553Z,96536.07
2018-12-17T06:54:21.835Z,96534.84
2018-12-17T06:56:49.258Z,96537.30
2018-12-17T06:59:17.054Z,96553.72
2018-12-17T07:01:44.621Z,96554.14
2018-12-17T07:04:12.304Z,96560.67
2018-12-17T07:06:40.040Z,96558.42
2018-12-17T07:09:07.465Z,96563.01
2018-12-17T07:11:34.880Z,96573.09
2018-12-17T07:14:02.613Z,96573.97
2018-12-17T07:16:30.011Z,96575.33
2018-12-17T07:18:57.414Z,96581.48
2018-12-17T07:21:24.964Z,96584.89
2018-12-17T07:23:52.402Z,96591.77
2018-12-17T07:26:19.803Z,96594.92
2018-12-17T07:28:47.557Z,96597.57
2018-12-17T07:31:14.961Z,96595.58
2018-12-17T07:33:42.402Z,96603.02
2018-12-17T07:36:10.006Z,96612.69
2018-12-17T07:38:37.410Z,96618.69
2018-12-17T07:41:04.808Z,96625.11
2018-12-17T07:43:32.405Z,96625.92
2018-12-17T07:45:59.812Z,96632.89
2018-12-17T07:48:27.546Z,96634.17
2018-12-17T07:50:55.077Z,96634.11
2018-12-17T07:53:22.485Z,96637.17
2018-12-17T07:55:49.945Z,96634.58
2018-12-17T07:58:17.651Z,96649.48
2018-12-17T08:00:45.065Z,96653.76
2018-12-17T08:03:12.658Z,96659.84
2018-12-17T08:05:40.127Z,96665.89
2018-12-17T08:08:07.544Z,96664.88
2018-12-17T08:10:35.639Z,96672.66
2018-12-17T08:13:03.295Z,96676.73
2018-12-17T08:15:30.695Z,96681.02
2018-12-17T08:18:23.014Z,96677.75
2018-12-17T08:20:51.232Z,96693.69
2018-12-17T08:23:18.844Z,96705.78
2018-12-17T08:25:46.307Z,96705.74
2018-12-17T08:28:14.019Z,96710.66
2018-12-17T08:30:41.472Z,96709.92
2018-12-17T08:33:09.193Z,96716.13
2018-12-17T08:35:36.660Z,96723.27
2018-12-17T08:38:04.196Z,96721.36
2018-12-17T08:40:31.680Z,96727.50
2018-12-17T08:42:59.086Z,96727.55
2018-12-17T08:45:26.492Z,96734.09
2018-12-17T08:47:54.256Z,96740.07
2018-12-17T08:50:21.780Z,96747.91
2018-12-17T08:52:49.194Z,96748.07
2018-12-17T08:55:17.632Z,96747.20
2018-12-17T08:57:45.048Z,96751.21
2018-12-17T09:00:12.732Z,96753.86
2018-12-17T09:02:40.304Z,96758.61
2018-12-17T09:05:07.887Z,96763.93
2018-12-17T09:07:35.297Z,96772.49
2018-12-17T09:10:03.496Z,96768.97
2018-12-17T09:12:31.316Z,96774.81
2018-12-17T09:14:58.728Z,96779.47
2018-12-17T09:17:26.244Z,96779.92
2018-12-17T09:19:53.648Z,96787.53
2018-12-17T09:22:21.060Z,96789.75
2018-12-17T09:24:48.656Z,96787.23
2018-12-17T09:27:16.644Z,96788.32
2018-12-17T09:29:44.232Z,96790.09
2018-12-17T09:32:11.836Z,96784.84
2018-12-17T09:34:39.448Z,96790.79
2018-12-17T09:37:06.851Z,96791.65
2018-12-17T09:39:35.028Z,96792.47
2018-12-17T09:42:02.436Z,96794.78
2018-12-17T09:44:29.914Z,96793.94
2018-12-17T09:46:57.596Z,96801.19
2018-12-17T09:49:25.175Z,96807.31
2018-12-17T09:51:52.783Z,96801.94
2018-12-17T09:54:20.388Z,96800.45
2018-12-17T09:56:49.084Z,96796.14
2018-12-17T09:59:16.487Z,96799.47
2018-12-17T10:01:44.099Z,96798.50
2018-12-17T10:04:11.513Z,96799.48
2018-12-17T10:06:38.965Z,96805.60
2018-12-17T10:09:06.658Z,96798.59
2018-12-17T10:11:34.069Z,96805.55
2018-12-17T10:14:01.519Z,96802.06
2018-12-17T10:16:29.177Z,96800.89
2018-12-17T10:18:56.578Z,96799.55
2018-12-17T10:21:24.393Z,96792.36
2018-12-17T10:23:51.884Z,96789.90
2018-12-17T10:26:19.349Z,96792.20
2018-12-17T10:28:46.902Z,96786.05
2018-12-17T10:31:14.484Z,96790.94
2018-12-17T10:33:42.408Z,96783.27
2018-12-17T10:36:09.887Z,96785.92
2018-12-17T10:38:37.575Z,96783.06
2018-12-17T10:41:05.457Z,96785.28
2018-12-17T10:43:32.860Z,96785.72
2018-12-17T10:46:00.370Z,96778.06
2018-12-17T10:48:27.864Z,96787.49
2018-12-17T10:50:55.883Z,96778.03
2018-12-17T10:53:23.433Z,96766.42
2018-12-17T10:55:50.909Z,96773.05
2018-12-17T10:58:18.303Z,96772.54
2018-12-17T11:00:51.578Z,96771.91
2018-12-17T11:03:20.940Z,96769.46
2018-12-17T11:05:48.395Z,96763.03
2018-12-17T11:08:16.277Z,96774.45
2018-12-17T11:10:44.582Z,96774.17
2018-12-17T11:13:11.976Z,96774.55
2018-12-17T11:15:39.769Z,96776.33
2018-12-17T11:18:07.460Z,96770.42
2018-12-17T11:20:34.863Z,96770.56
2018-12-17T11:23:02.548Z,96776.31
2018-12-17T11:25:29.952Z,96778.42
2018-12-17T11:27:57.350Z,96777.08
2018-12-17T11:30:24.833Z,96770.12
2018-12-17T11:32:53.036Z,96771.70
2018-12-17T11:35:20.428Z,96777.08
2018-12-17T11:37:48.924Z,96773.69
2018-12-17T11:40:16.339Z,96769.92
2018-12-17T11:42:43.815Z,96779.81
2018-12-17T11:45:11.508Z,96785.88
2018-12-17T11:47:38.908Z,96781.48
2018-12-17T11:50:06.926Z,96789.70
2018-12-17T11:52:34.489Z,96794.45
2018-12-17T11:55:02.196Z,96801.11
2018-12-17T11:57:46.604Z,96804.09
2018-12-17T12:00:14.061Z,96800.17
2018-12-17T12:02:41.460Z,96814.67
2018-12-17T12:05:09.190Z,96805.84
2018-12-17T12:07:36.585Z,96815.34
2018-12-17T12:10:05.312Z,96811.40
2018-12-17T12:12:32.886Z,96817.19
2018-12-17T12:15:00.277Z,96822.27
2018-12-17T12:17:27.959Z,96823.33
2018-12-17T12:19:55.553Z,96823.39
2018-12-17T12:22:22.949Z,96827.12
2018-12-17T12:24:50.343Z,96827.06
2018-12-17T12:27:18.328Z,96815.88
2018-12-17T12:29:45.871Z,96821.16
2018-12-17T12:32:13.264Z,96828.55
2018-12-17T12:34:40.712Z,96834.79
2018-12-17T12:37:08.127Z,96833.47
2018-12-17T12:39:35.623Z,96831.42
2018-12-17T12:42:03.139Z,96834.59
2018-12-17T12:44:30.727Z,96838.86
2018-12-17T12:46:58.126Z,96846.05
2018-12-17T12:49:25.751Z,96852.33
2018-12-17T12:51:53.154Z,96852.16
2018-12-17T12:54:21.053Z,96852.75
2018-12-17T12:56:48.465Z,96863.31
2018-12-17T12:59:15.887Z,96864.83
2018-12-17T13:01:44.096Z,96870.16
2018-12-17T13:04:11.635Z,96878.25
2018-12-17T13:06:39.035Z,96877.25
2018-12-17T13:09:07.891Z,96883.55
2018-12-17T13:11:35.437Z,96888.78
2018-12-17T13:14:02.905Z,96887.95
2018-12-17T13:16:30.309Z,96887.95
2018-12-17T13:18:57.726Z,96889.73
2018-12-17T13:21:25.119Z,96891.97
2018-12-17T13:23:52.515Z,96896.86
2018-12-17T13:26:19.979Z,96899.47
2018-12-17T13:28:47.386Z,96904.32
2018-12-17T13:31:14.905Z,96910.86
2018-12-17T13:33:42.651Z,96909.66
2018-12-17T13:36:10.111Z,96909.41
2018-12-17T13:38:37.667Z,96916.77
2018-12-17T13:41:05.439Z,96915.22
2018-12-17T13:43:32.841Z,96924.85
2018-12-17T13:46:00.871Z,96929.80
2018-12-17T13:48:28.294Z,96917.41
2018-12-17T13:50:57.658Z,96928.45
2018-12-17T13:53:30.794Z,96929.27
2018-12-17T13:55:58.260Z,96928.64
2018-12-17T13:58:25.649Z,96935.37
2018-12-17T14:00:53.490Z,96932.98
2018-12-17T14:03:20.883Z,96936.53
2018-12-17T14:05:49.168Z,96937.11
2018-12-17T14:08:16.800Z,96938.99
2018-12-17T14:10:50.939Z,96936.58
2018-12-17T14:13:18.443Z,96938.46
2018-12-17T14:15:50.547Z,96936.66
2018-12-17T14:18:24.796Z,96936.50
2018-12-17T14:20:58.442Z,96945.84
2018-12-17T14:23:26.188Z,96958.18
2018-12-17T14:25:53.608Z,96956.72
2018-12-17T14:28:20.997Z,96956.34
2018-12-17T14:30:48.559Z,96951.34
2018-12-17T14:33:15.965Z,96960.09
2018-12-17T14:35:48.921Z,96969.47
2018-12-17T14:38:16.454Z,96963.12
2018-12-17T14:40:43.862Z,96964.53
2018-12-17T14:43:11.260Z,96972.02
2018-12-17T14:45:38.680Z,96973.42
2018-12-17T14:48:06.072Z,96978.39
2018-12-17T14:50:33.474Z,96975.97
2018-12-17T14:53:01.102Z,96963.96
2018-12-17T14:55:28.512Z,96970.94
2018-12-17T14:57:56.012Z,96984.47
2018-12-17T15:00:23.775Z,96987.75
2018-12-17T15:02:51.651Z,96980.88
2018-12-17T15:05:19.451Z,96996.98
2018-12-17T15:07:47.045Z,96993.64
2018-12-17T15:10:14.447Z,96998.98
2018-12-17T15:12:41.854Z,96997.20
2018-12-17T15:15:10.408Z,97002.05
2018-12-17T15:17:37.863Z,97005.95
2018-12-17T15:20:08.283Z,97010.26
2018-12-17T15:22:35.888Z,97013.44
2018-12-17T15:25:04.011Z,97022.93
2018-12-17T15:27:31.962Z,97019.30
2018-12-17T15:29:59.667Z,97025.45
2018-12-17T15:32:27.380Z,97035.06
2018-12-17T15:34:54.967Z,97036.84
2018-12-17T15:37:22.691Z,97030.03
2018-12-17T15:39:50.103Z,97042.25
2018-12-17T15:42:17.495Z,97040.47
2018-12-17T15:44:45.127Z,97044.61
2018-12-17T15:47:12.527Z,97056.35
2018-12-17T15:49:40.272Z,97059.98
2018-12-17T15:52:07.715Z,97063.63
2018-12-17T15:54:35.107Z,97067.19
2018-12-17T15:57:02.503Z,97075.95
2018-12-17T15:59:30.023Z,97072.03
2018-12-17T16:01:57.441Z,97074.73
2018-12-17T16:04:24.847Z,97079.13
2018-12-17T16:06:52.383Z,97084.70
2018-12-17T16:09:19.797Z,97089.09
2018-12-17T16:11:47.325Z,97093.83
2018-12-17T16:14:14.861Z,97096.27
2018-12-17T16:16:42.261Z,97092.26
2018-12-17T16:19:09.657Z,97105.57
2018-12-17T16:21:37.226Z,97104.17
2018-12-17T16:24:04.631Z,97109.66
2018-12-17T16:26:32.037Z,97113.13
2018-12-17T16:28:59.605Z,97115.74
2018-12-17T16:31:27.001Z,97117.40
2018-12-17T16:33:54.395Z,97119.92
2018-12-17T16:36:22.097Z,97124.92
2018-12-17T16:38:49.498Z,97113.17
2018-12-17T16:41:16.912Z,97118.78
2018-12-17T16:43:44.431Z,97121.78
2018-12-17T16:46:11.845Z,97114.04
2018-12-17T16:48:39.250Z,97122.70
2018-12-17T16:51:06.989Z,97123.17
2018-12-17T16:53:34.377Z,97124.09
2018-12-17T16:56:01.848Z,97131.94
2018-12-17T16:58:29.372Z,97125.97
2018-12-17T17:00:56.883Z,97132.14
2018-12-17T17:03:24.276Z,97138.28
2018-12-17T17:05:51.763Z,97146.03
2018-12-17T17:08:19.756Z,97146.03
2018-12-17T17:10:47.309Z,97151.34
2018-12-17T17:13:14.847Z,97151.34
2018-12-17T17:15:42.300Z,97154.05
2018-12-17T17:18:10.107Z,97156.78
2018-12-17T17:20:37.710Z,97166.75
2018-12-17T17:23:05.114Z,97162.92
2018-12-17T17:25:32.509Z,97165.14
2018-12-17T17:28:00.273Z,97167.88
2018-12-17T17:30:27.661Z,97170.02
2018-12-17T17:32:55.559Z,97171.67
2018-12-17T17:35:23.119Z,97175.14
2018-12-17T17:37:50.535Z,97178.11
2018-12-17T17:40:17.957Z,97182.98
2018-12-17T17:42:45.567Z,97183.06
2018-12-17T17:45:13.444Z,97193.03
2018-12-17T17:47:40.857Z,97192.30
2018-12-17T17:50:08.443Z,97193.59
2018-12-17T17:52:35.862Z,97193.23
2018-12-17T17:55:03.892Z,97191.94
2018-12-17T17:57:31.395Z,97202.38
2018-12-17T17:59:58.883Z,97203.21
2018-12-17T18:02:26.327Z,97198.08
2018-12-17T18:04:53.810Z,97203.30
2018-12-17T18:07:21.995Z,97198.91
2018-12-17T18:09:49.420Z,97200.59
2018-12-17T18:12:17.125Z,97200.12
2018-12-17T18:14:44.521Z,97208.70
2018-12-17T18:17:12.278Z,97206.09
2018-12-17T18:19:39.768Z,97207.39
2018-12-17T18:22:07.176Z,97208.70
2018-12-17T18:24:34.589Z,97222.58
2018-12-17T18:27:02.131Z,97231.27
2018-12-17T18:29:30.442Z,97229.41
2018-12-17T18:31:57.968Z,97234.06
2018-12-17T18:34:25.747Z,97235.28
2018-12-17T18:36:53.154Z,97233.98
2018-12-17T18:39:20.911Z,97246.56
2018-12-17T18:41:48.343Z,97240.30
2018-12-17T18:44:16.330Z,97241.52
2018-12-17T18:46:43.795Z,97248.42
2018-12-17T18:49:11.710Z,97249.61
2018-12-17T18:51:39.111Z,97260.71
2018-12-17T18:54:06.535Z,97264.55
2018-12-17T18:56:34.311Z,97264.45
2018-12-17T18:59:01.710Z,97271.25
2018-12-17T19:01:29.219Z,97271.25
2018-12-17T19:03:57.177Z,97277.69
2018-12-17T19:06:24.567Z,97285.70
2018-12-17T19:08:52.199Z,97289.71
2018-12-17T19:11:19.770Z,97288.41
2018-12-17T19:13:47.174Z,97297.19
2018-12-17T19:16:14.585Z,97298.59
2018-12-17T19:18:42.107Z,97304.16
2018-12-17T19:21:09.511Z,97311.44
2018-12-17T19:23:36.904Z,97312.66
2018-12-17T19:26:04.470Z,97315.19
2018-12-17T19:28:31.875Z,97319.48
2018-12-17T19:30:59.283Z,97320.80
2018-12-17T19:33:26.840Z,97327.68
2018-12-17T19:35:54.257Z,97313.88
2018-12-17T19:38:21.646Z,97321.36
2018-12-17T19:40:49.214Z,97331.03
2018-12-17T19:43:16.645Z,97332.16
2018-12-17T19:45:44.044Z,97334.88
2018-12-17T19:48:11.511Z,97345.33
2018-12-17T19:50:39.112Z,97342.60
2018-12-17T19:53:06.517Z,97353.44
2018-12-17T19:55:34.338Z,97360.33
2018-12-17T19:58:01.819Z,97357.83
2018-12-17T20:00:29.227Z,97362.66
2018-12-17T20:02:57.251Z,97367.80
2018-12-17T20:05:24.847Z,97374.42
2018-12-17T20:07:52.632Z,97376.55
2018-12-17T20:10:21.208Z,97379.28
2018-12-17T20:12:48.614Z,97381.98
2018-12-17T20:15:16.012Z,97379.45
2018-12-17T20:17:44.756Z,97379.19
2018-12-17T20:20:12.208Z,97382.72
2018-12-17T20:22:39.616Z,97380.30
2018-12-17T20:25:07.192Z,97374.69
2018-12-17T20:27:34.658Z,97375.25
2018-12-17T20:30:02.139Z,97378.42
2018-12-17T20:32:29.753Z,97381.03
2018-12-17T20:34:57.144Z,97387.56
2018-12-17T20:37:24.649Z,97383.64
2018-12-17T20:39:52.100Z,97391.00
2018-12-17T20:42:19.502Z,97390.53
2018-12-17T20:44:46.905Z,97387.48
2018-12-17T20:47:14.722Z,97391.84
2018-12-17T20:49:42.135Z,97389.23
2018-12-17T20:52:10.224Z,97391.48
2018-12-17T20:54:37.740Z,97399.87
2018-12-17T20:57:05.143Z,97404.26
2018-12-17T20:59:33.136Z,97406.12
2018-12-17T21:02:00.799Z,97410.95
2018-12-17T21:04:28.373Z,97418.40
2018-12-17T21:06:55.774Z,97414.95
2018-12-17T21:09:23.304Z,97416.27
2018-12-17T21:11:50.710Z,97415.34
2018-12-17T21:14:23.649Z,97415.70
2018-12-17T21:16:47.716Z,97415.89
2018-12-17T21:19:15.118Z,97412.55
2018-12-17T21:21:42.528Z,97416.19
2018-12-17T21:24:09.984Z,97420.41
2018-12-17T21:26:37.393Z,97425.16
2018-12-17T21:29:04.867Z,97427.50
2018-12-17T21:31:32.381Z,97421.22
2018-12-17T21:33:59.966Z,97430.92
2018-12-17T21:36:27.566Z,97426.17
2018-12-17T21:38:55.340Z,97429.14
2018-12-17T21:41:22.761Z,97426.64
2018-12-17T21:43:50.344Z,97428.51
2018-12-17T21:46:17.912Z,97424.76
2018-12-17T21:48:45.435Z,97426.54
2018-12-17T21:51:12.842Z,97425.41
2018-12-17T21:53:40.382Z,97432.13
2018-12-17T21:56:07.785Z,97429.68
2018-12-17T21:58:35.224Z,97431.90
2018-12-17T22:01:02.914Z,97428.09
2018-12-17T22:03:30.321Z,97438.98
2018-12-17T22:05:57.739Z,97435.54
2018-12-17T22:08:25.235Z,97446.81
2018-12-17T22:10:52.639Z,97443.38
2018-12-17T22:13:20.040Z,97455.59
2018-12-17T22:15:47.460Z,97456.50
2018-12-17T22:18:14.866Z,97449.70
2018-12-17T22:20:42.552Z,97456.63
2018-12-17T22:23:10.019Z,97458.20
2018-12-17T22:25:37.823Z,97456.34
2018-12-17T22:28:05.248Z,97457.17
2018-12-17T22:30:32.861Z,97460.92
2018-12-17T22:33:01.000Z,97456.81
2018-12-17T22:35:28.400Z,97453.84
2018-12-17T22:37:55.944Z,97444.79
2018-12-17T22:40:23.351Z,97446.09
2018-12-17T22:42:50.751Z,97443.95
2018-12-17T22:45:18.177Z,97450.09
2018-12-17T22:47:45.582Z,97453.56
2018-12-17T22:50:13.049Z,97454.87
2018-12-17T22:52:40.574Z,97445.73
2018-12-17T22:55:08.191Z,97449.18
2018-12-17T22:57:35.589Z,97450.48
2018-12-17T23:00:04.797Z,97447.79
2018-12-17T23:02:32.193Z,97443.41
2018-12-17T23:04:59.584Z,97446.92
2018-12-17T23:07:27.058Z,97443.88
2018-12-17T23:10:06.332Z,97436.95
2018-12-17T23:12:46.139Z,97432.20
2018-12-17T23:15:25.392Z,97430.52
2018-12-17T23:17:52.731Z,97430.07
2018-12-17T23:20:20.712Z,97421.84
2018-12-17T23:22:48.547Z,97424.84
2018-12-17T23:25:16.131Z,97428.38
2018-12-17T23:27:48.132Z,97425.20
2018-12-17T23:30:16.982Z,97422.68
2018-12-17T23:32:44.803Z,97418.84
2018-12-17T23:35:12.489Z,97423.07
2018-12-17T23:37:39.960Z,97420.38
2018-12-17T23:40:07.489Z,97416.45
2018-12-17T23:42:34.982Z,97414.20
2018-12-17T23:45:02.636Z,97410.68
2018-12-17T23:47:30.031Z,97414.59
2018-12-17T23:49:57.430Z,97398.94
2018-12-17T23:52:25.072Z,97401.98
2018-12-17T23:54:52.562Z,97403.77
2018-12-17T23:57:19.978Z,97407.20
2018-12-17T23:59:47.395Z,97397.52
